Time;durP1;ratioP1;P1;durP2;ratioP2;P2;SDS_P1;SDS_P2;PMS_P1;PMS_P2;Temp;Humidity;BMP_temperature;BMP_pressure;BME280_temperature;BME280_humidity;BME280_pressure;Samples;Min_cycle;Max_cycle;Signal;HPM_P1;HPM_P2
2022/07/15 00:00:57;;;;;;;;;5.25;5.25;;;;;22.41;40.48;101838.38;6256640;22;46683;-77
2022/07/15 00:03:23;;;;;;;;;4.00;4.00;;;;;22.38;40.39;101835.78;6249866;22;46059;-77
2022/07/15 00:05:51;;;;;;;;;4.50;4.50;;;;;22.33;40.61;101833.25;6277914;22;45292;-77
2022/07/15 00:08:19;;;;;;;;;4.75;4.75;;;;;22.30;40.83;101836.06;6276658;22;45303;-78
2022/07/15 00:11:00;;;;;;;;;;;;;;;;;;;;;
2022/07/15 00:17:26;;;;;;;;;5.00;5.00;;;;;22.28;40.83;101853.13;6251792;22;45338;-80
2022/07/15 00:24:05;;;;;;;;;4.75;4.00;;;;;22.09;41.04;101853.75;6203690;22;46961;-79
2022/07/15 00:27:24;;;;;;;;;;;;;;;;;;;;;
2022/07/15 00:30:00;;;;;;;;;5.75;5.25;;;;;22.05;40.98;101859.25;6242281;22;67876;-80
2022/07/15 00:32:38;;;;;;;;;5.00;4.00;;;;;21.96;41.40;101849.72;6250109;22;45593;-80
2022/07/15 00:35:13;;;;;;;;;5.00;3.75;;;;;21.95;41.48;101853.34;6279087;22;45446;-80
2022/07/15 00:38:22;;;;;;;;;5.00;3.50;;;;;21.96;41.58;101863.13;6249757;22;45793;-80
2022/07/15 00:59:11;;;;;;;;;;;;;;;;;;;;;
2022/07/15 01:06:11;;;;;;;;;5.25;4.25;;;;;21.46;42.89;101877.22;5946932;23;45644;-82
2022/07/15 01:09:22;;;;;;;;;;;;;;;;;;;;;
2022/07/15 01:12:37;;;;;;;;;;;;;;;;;;;;;
2022/07/15 01:15:59;;;;;;;;;;;;;;;;;;;;;
2022/07/15 01:19:18;;;;;;;;;;;;;;;;;;;;;
2022/07/15 01:25:36;;;;;;;;;4.50;4.50;;;;;21.12;42.95;101896.09;6108040;23;45615;-82
2022/07/15 01:31:59;;;;;;;;;;;;;;;;;;;;;
2022/07/15 01:34:53;;;;;;;;;;;;;;;;;;;;;
2022/07/15 01:37:35;;;;;;;;;2.75;2.75;;;;;21.08;42.25;101910.47;6064997;23;71255;-82
2022/07/15 01:40:53;;;;;;;;;4.25;4.00;;;;;21.07;42.63;101920.31;6065512;23;46188;-82
2022/07/15 01:43:43;;;;;;;;;4.00;3.00;;;;;20.89;42.50;101891.38;6152911;23;45416;-82
2022/07/15 01:49:50;;;;;;;;;;;;;;;;;;;;;
2022/07/15 01:52:51;;;;;;;;;2.00;2.00;;;;;20.82;43.00;101913.88;6215300;22;75195;-82
2022/07/15 02:01:55;;;;;;;;;3.25;3.25;;;;;20.79;42.50;101908.63;6212922;22;45165;-82
2022/07/15 02:08:13;;;;;;;;;3.50;3.50;;;;;20.61;43.07;101900.19;6245576;22;45194;-82
2022/07/15 02:11:11;;;;;;;;;;;;;;;;;;;;;
2022/07/15 02:13:56;;;;;;;;;;;;;;;;;;;;;
2022/07/15 02:17:03;;;;;;;;;3.00;3.00;;;;;20.55;42.67;101896.78;6276717;22;76697;-82
2022/07/15 02:26:49;;;;;;;;;4.00;4.00;;;;;20.42;42.89;101890.84;6278190;22;45182;-82
2022/07/15 02:29:36;;;;;;;;;3.75;2.75;;;;;20.55;42.89;101918.19;6249703;22;47093;-82
2022/07/15 02:32:07;;;;;;;;;3.00;3.00;;;;;20.48;42.69;101893.38;6249993;22;45202;-82
2022/07/15 02:34:58;;;;;;;;;3.00;2.75;;;;;20.36;42.92;101878.50;6278874;22;45418;-82
2022/07/15 02:38:15;;;;;;;;;;;;;;;;;;;;;
2022/07/15 02:40:49;;;;;;;;;4.25;4.00;;;;;20.44;43.10;101892.56;6277047;22;74795;-82
2022/07/15 02:43:42;;;;;;;;;;;;;;;;;;;;;
2022/07/15 02:46:20;;;;;;;;;3.75;3.50;;;;;20.43;43.20;101903.31;6276873;22;67874;-82
2022/07/15 02:49:02;;;;;;;;;3.50;3.00;;;;;20.29;42.73;101887.63;6275404;22;45408;-82
2022/07/15 02:52:02;;;;;;;;;4.50;4.50;;;;;20.36;43.37;101921.31;6248309;22;47123;-82
2022/07/15 02:55:07;;;;;;;;;;;;;;;;;;;;;
2022/07/15 02:57:44;;;;;;;;;8.25;6.00;;;;;20.25;43.63;101916.25;6277001;22;68240;-82
2022/07/15 03:01:09;;;;;;;;;;;;;;;;;;;;;
2022/07/15 03:04:00;;;;;;;;;;;;;;;;;;;;;
2022/07/15 03:09:36;;;;;;;;;;;;;;;;;;;;;
2022/07/15 03:12:29;;;;;;;;;5.00;4.00;;;;;19.89;43.71;101891.31;6276920;22;72665;-82
2022/07/15 03:15:50;;;;;;;;;4.00;4.00;;;;;20.10;43.72;101934.44;6227220;22;46761;-82
2022/07/15 03:22:34;;;;;;;;;;;;;;;;;;;;;
2022/07/15 03:36:57;;;;;;;;;2.75;2.50;;;;;19.75;44.28;101906.78;6086022;23;45484;-82
2022/07/15 03:40:03;;;;;;;;;5.75;5.75;;;;;19.83;44.35;101913.72;6157533;23;45331;-82
2022/07/15 03:46:20;;;;;;;;;;;;;;;;;;;;;
2022/07/15 03:49:48;;;;;;;;;;;;;;;;;;;;;
2022/07/15 03:52:52;;;;;;;;;5.75;5.75;;;;;19.65;44.07;101886.50;6190045;22;73181;-81
2022/07/15 03:59:33;;;;;;;;;7.25;6.50;;;;;19.78;44.10;101920.06;6129593;23;45242;-81
2022/07/15 04:09:13;;;;;;;;;;;;;;;;;;;;;
2022/07/15 04:12:28;;;;;;;;;;;;;;;;;;;;;
2022/07/15 04:16:08;;;;;;;;;;;;;;;;;;;;;
2022/07/15 04:18:57;;;;;;;;;;;;;;;;;;;;;
2022/07/15 04:22:17;;;;;;;;;4.50;4.50;;;;;19.45;45.02;101919.00;6246978;22;75666;-82
2022/07/15 04:35:38;;;;;;;;;;;;;;;;;;;;;
2022/07/15 04:52:47;;;;;;;;;6.00;6.00;;;;;19.23;46.29;101930.13;5895518;24;45255;-81
2022/07/15 04:55:41;;;;;;;;;;;;;;;;;;;;;
2022/07/15 04:58:18;;;;;;;;;5.25;5.25;;;;;19.35;46.19;101964.63;5938283;23;72603;-81
2022/07/15 05:01:14;;;;;;;;;;;;;;;;;;;;;
2022/07/15 05:04:24;;;;;;;;;;;;;;;;;;;;;
2022/07/15 05:07:34;;;;;;;;;4.75;4.75;;;;;19.14;46.58;101933.00;6242291;22;67544;-81
2022/07/15 05:11:20;;;;;;;;;;;;;;;;;;;;;
2022/07/15 05:14:19;;;;;;;;;;;;;;;;;;;;;
2022/07/15 05:17:02;;;;;;;;;5.00;5.00;;;;;19.26;47.67;101967.44;6218341;22;71974;-81
2022/07/15 05:19:38;;;;;;;;;10.25;7.50;;;;;19.17;47.39;101949.84;6245960;22;45394;-81
2022/07/15 05:22:22;;;;;;;;;5.00;5.00;;;;;19.19;47.63;101963.13;6244294;22;45227;-81
2022/07/15 05:25:19;;;;;;;;;;;;;;;;;;;;;
2022/07/15 05:27:57;;;;;;;;;;;;;;;;;;;;;
2022/07/15 05:31:01;;;;;;;;;;;;;;;;;;;;;
2022/07/15 05:33:29;;;;;;;;;4.75;4.75;;;;;19.08;47.78;101944.66;6247298;22;72743;-81
2022/07/15 05:35:59;;;;;;;;;5.75;5.50;;;;;19.30;48.19;101973.59;6246272;22;46074;-79
2022/07/15 05:38:32;;;;;;;;;5.75;5.00;;;;;19.22;48.15;101962.19;6245835;22;45189;-79
2022/07/15 05:41:10;;;;;;;;;7.00;7.00;;;;;19.46;47.99;101998.22;6245868;22;45198;-79
2022/07/15 05:43:43;;;;;;;;;6.75;6.50;;;;;19.37;48.35;101978.78;6245628;22;45889;-79
2022/07/15 05:46:19;;;;;;;;;5.75;5.00;;;;;19.48;47.89;101996.38;6245143;22;46539;-79
2022/07/15 05:48:50;;;;;;;;;5.00;5.00;;;;;19.43;48.22;101974.22;6220163;22;45719;-79
2022/07/15 05:51:19;;;;;;;;;6.00;6.00;;;;;19.48;47.87;101975.91;6245028;22;45229;-79
2022/07/15 05:53:50;;;;;;;;;8.75;5.50;;;;;19.57;47.81;101998.88;6245587;22;45336;-80
2022/07/15 05:56:25;;;;;;;;;7.00;5.25;;;;;19.56;48.34;101986.41;6247793;22;46137;-79
2022/07/15 05:59:08;;;;;;;;;5.00;4.00;;;;;19.59;48.34;101984.59;6245708;22;45242;-79
2022/07/15 06:01:46;;;;;;;;;;;;;;;;;;;;;
2022/07/15 06:04:14;;;;;;;;;6.00;6.00;;;;;19.77;48.05;102004.69;6246063;22;71398;-79
2022/07/15 06:06:52;;;;;;;;;;;;;;;;;;;;;
2022/07/15 06:09:22;;;;;;;;;5.25;5.25;;;;;19.76;47.61;101984.25;6273848;22;72060;-77
2022/07/15 06:11:48;;;;;;;;;5.00;5.00;;;;;19.79;48.05;101992.19;6276036;22;45233;-78
2022/07/15 06:14:18;;;;;;;;;6.25;6.25;;;;;19.70;48.21;101970.13;6278750;22;45274;-78
2022/07/15 06:16:47;;;;;;;;;7.25;6.00;;;;;19.83;47.54;101991.22;6278220;22;46127;-77
2022/07/15 06:19:12;;;;;;;;;6.50;6.25;;;;;19.82;48.00;101983.22;6278674;22;45181;-77
2022/07/15 06:21:42;;;;;;;;;7.50;6.00;;;;;19.81;48.06;101979.69;6278616;22;45250;-76
2022/07/15 06:24:12;;;;;;;;;6.25;5.50;;;;;19.80;47.67;101983.25;6278634;22;45354;-76
2022/07/15 06:26:37;;;;;;;;;8.50;7.50;;;;;19.95;47.74;102006.09;6278226;22;46284;-77
2022/07/15 06:29:08;;;;;;;;;7.75;6.25;;;;;19.89;47.71;101982.19;6250782;22;45244;-77
2022/07/15 06:31:36;;;;;;;;;6.50;4.75;;;;;19.97;47.75;101995.38;6250971;22;45358;-78
2022/07/15 06:34:06;;;;;;;;;8.00;7.75;;;;;20.08;47.61;102003.16;6278445;22;45444;-78
2022/07/15 06:36:36;;;;;;;;;8.25;6.25;;;;;20.07;47.43;101993.34;6275851;22;47161;-77
2022/07/15 06:39:07;;;;;;;;;7.50;5.50;;;;;20.18;47.13;102010.94;6278445;22;45173;-77
2022/07/15 06:41:37;;;;;;;;;7.50;7.00;;;;;20.20;47.10;102008.19;6278696;22;45260;-77
2022/07/15 06:44:05;;;;;;;;;6.00;5.25;;;;;20.20;46.49;102002.84;6278204;22;45188;-78
2022/07/15 06:46:33;;;;;;;;;6.25;5.75;;;;;20.26;46.62;102011.63;6249940;22;46093;-78
2022/07/15 06:49:01;;;;;;;;;10.00;7.50;;;;;20.26;46.61;102000.00;6249986;22;45224;-78
2022/07/15 06:51:32;;;;;;;;;8.00;6.75;;;;;20.37;46.06;102014.03;6249950;22;45252;-78
2022/07/15 06:54:07;;;;;;;;;16.25;16.00;;;;;20.44;46.31;102022.78;6249359;22;45450;-79
2022/07/15 06:56:35;;;;;;;;;7.50;7.50;;;;;20.46;45.97;102018.28;6277901;22;45462;-76
2022/07/15 06:59:06;;;;;;;;;8.50;7.50;;;;;20.49;45.79;102015.53;6277525;22;45351;-77
2022/07/15 07:01:32;;;;;;;;;6.50;5.75;;;;;20.55;45.88;102007.38;6249809;22;45412;-78
2022/07/15 07:04:00;;;;;;;;;7.25;6.75;;;;;20.59;45.87;102003.72;6249899;22;45277;-78
2022/07/15 07:06:28;;;;;;;;;7.75;7.75;;;;;;;;6275741;22;48176;-78
2022/07/15 07:08:58;;;;;;;;;7.25;6.25;;;;;20.75;45.62;102008.69;6277750;22;45180;-79
2022/07/15 07:11:27;;;;;;;;;6.75;6.00;;;;;20.82;45.20;102011.16;6250447;22;45285;-81
2022/07/15 07:14:02;;;;;;;;;10.00;7.75;;;;;20.94;44.92;102012.63;6277909;22;45113;-83
2022/07/15 07:16:35;;;;;;;;;5.75;4.00;;;;;20.97;45.09;102012.53;6279018;22;47529;-81
2022/07/15 07:19:14;;;;;;;;;5.50;5.00;;;;;21.03;44.66;102007.00;6281125;22;45197;-82
2022/07/15 07:21:42;;;;;;;;;5.50;5.25;;;;;21.19;44.54;102017.31;6253785;22;45273;-82
2022/07/15 07:24:12;;;;;;;;;4.50;4.50;;;;;21.30;44.02;102013.44;6253316;22;45689;-81
2022/07/15 07:26:48;;;;;;;;;5.00;5.00;;;;;21.36;44.10;102007.00;6251400;22;47350;-82
2022/07/15 07:29:22;;;;;;;;;5.25;4.25;;;;;21.48;44.07;102004.00;6278488;22;46013;-82
2022/07/15 07:31:52;;;;;;;;;6.00;4.75;;;;;21.56;43.25;102003.78;6278798;22;45093;-82
2022/07/15 07:34:29;;;;;;;;;3.50;3.50;;;;;21.73;42.90;102008.63;6251368;22;45376;-82
2022/07/15 07:37:00;;;;;;;;;4.75;4.25;;;;;21.88;42.41;102004.63;6250008;22;46872;-79
2022/07/15 07:39:43;;;;;;;;;3.75;3.75;;;;;22.07;42.14;102005.78;6279025;22;45340;-81
2022/07/15 07:42:17;;;;;;;;;5.75;3.75;;;;;22.16;42.64;101993.88;6276328;22;45428;-81
2022/07/15 07:44:48;;;;;;;;;3.25;3.25;;;;;22.33;41.73;102002.31;6244441;22;45416;-79
2022/07/15 07:47:13;;;;;;;;;3.00;2.75;;;;;22.36;41.36;101994.16;6250672;22;47166;-80
2022/07/15 07:49:44;;;;;;;;;4.50;4.25;;;;;22.39;40.76;101994.03;6278555;22;45229;-80
2022/07/15 07:52:14;;;;;;;;;5.00;4.00;;;;;22.50;41.07;102000.88;6251307;22;45266;-79
2022/07/15 07:54:47;;;;;;;;;3.25;3.25;;;;;22.58;40.49;102001.47;6251318;22;45533;-79
2022/07/15 07:57:15;;;;;;;;;4.50;4.00;;;;;22.60;40.31;101999.63;6278453;22;46487;-79
2022/07/15 07:59:41;;;;;;;;;3.25;2.00;;;;;22.71;40.34;102002.81;6250487;22;45886;-79
2022/07/15 08:02:19;;;;;;;;;4.75;3.75;;;;;22.77;39.85;101996.34;6251288;22;45247;-79
2022/07/15 08:04:51;;;;;;;;;3.50;3.00;;;;;22.76;39.42;101994.63;6278909;22;45115;-79
2022/07/15 08:07:17;;;;;;;;;4.25;4.25;;;;;22.79;38.49;101983.75;6250233;22;47356;-78
2022/07/15 08:09:44;;;;;;;;;4.75;3.25;;;;;22.84;38.74;101996.09;6250884;22;45198;-78
2022/07/15 08:12:30;;;;;;;;;4.25;4.25;;;;;22.90;39.32;101997.69;6279313;22;45485;-79
2022/07/15 08:15:07;;;;;;;;;4.50;4.25;;;;;22.93;38.76;101981.47;6282170;22;45268;-80
2022/07/15 08:17:37;;;;;;;;;3.75;3.00;;;;;23.04;38.77;101984.69;6253205;22;47314;-80
2022/07/15 08:20:13;;;;;;;;;3.00;2.00;;;;;23.18;37.78;101986.88;6250735;22;45225;-79
2022/07/15 08:22:40;;;;;;;;;2.00;2.00;;;;;23.31;38.07;101985.50;6278486;22;45249;-79
2022/07/15 08:25:06;;;;;;;;;3.00;3.00;;;;;23.41;37.27;101977.06;6278212;22;45574;-79
2022/07/15 08:30:25;;;;;;;;;3.00;3.00;;;;;23.64;36.77;101981.59;6266109;22;45405;-79
2022/07/15 08:33:02;;;;;;;;;2.50;2.50;;;;;23.74;36.63;101988.41;6250918;22;45442;-80
2022/07/15 08:35:27;;;;;;;;;3.00;2.00;;;;;23.82;36.13;101988.06;6275363;22;45342;-79
2022/07/15 08:38:04;;;;;;;;;2.50;2.50;;;;;23.84;36.18;101997.84;6278098;22;46128;-80
2022/07/15 08:40:58;;;;;;;;;2.50;2.50;;;;;23.89;36.21;101990.47;6278338;22;45300;-80
2022/07/15 08:43:29;;;;;;;;;2.25;2.25;;;;;24.01;35.81;101993.63;6242546;22;45387;-79
2022/07/15 08:46:17;;;;;;;;;;;;;;;;;;;;;
2022/07/15 08:49:29;;;;;;;;;4.50;3.00;;;;;24.13;35.23;101977.84;6277994;22;74118;-80
2022/07/15 08:52:07;;;;;;;;;;;;;;;;;;;;;
2022/07/15 08:54:38;;;;;;;;;4.00;2.50;;;;;24.29;34.73;101972.69;6277846;22;67301;-79
2022/07/15 08:57:08;;;;;;;;;6.00;3.75;;;;;24.39;33.92;101979.47;6276651;22;45257;-78
2022/07/15 08:59:49;;;;;;;;;2.25;2.25;;;;;24.42;33.86;101963.16;6277966;22;46319;-79
2022/07/15 09:02:21;;;;;;;;;3.25;2.75;;;;;24.51;33.97;101967.34;6250256;22;45273;-80
2022/07/15 09:05:39;;;;;;;;;;;;;;;;;;;;;
2022/07/15 09:08:21;;;;;;;;;2.75;2.75;;;;;24.66;33.85;101965.78;6273657;22;71413;-79
2022/07/15 09:11:13;;;;;;;;;;;;;;;;;;;;;
2022/07/15 09:13:50;;;;;;;;;1.75;1.75;;;;;24.71;33.84;101961.09;6274972;22;72767;-78
2022/07/15 09:16:52;;;;;;;;;4.75;2.75;;;;;24.79;33.29;101960.75;6275973;22;45273;-79
2022/07/15 09:19:40;;;;;;;;;;;;;;;;;;;;;
2022/07/15 09:23:10;;;;;;;;;;;;;;;;;;;;;
2022/07/15 09:28:52;;;;;;;;;2.25;1.50;;;;;24.98;31.93;101961.69;6275110;22;45120;-78
2022/07/15 10:17:30;;;;;;;;;;;;;;;;;;;;;
2022/07/15 10:23:57;;;;;;;;;1.00;1.00;;;;;26.22;28.54;101937.91;6005626;23;45229;-80
2022/07/15 10:31:25;;;;;;;;;;;;;;;;;;;;;
2022/07/15 10:48:33;;;;;;;;;;;;;;;;;;;;;
2022/07/15 10:51:32;;;;;;;;;;;;;;;;;;;;;
2022/07/15 10:54:28;;;;;;;;;;;;;;;;;;;;;
2022/07/15 10:57:42;;;;;;;;;;;;;;;;;;;;;
2022/07/15 11:00:28;;;;;;;;;2.00;2.00;;;;;27.88;25.82;101901.03;6220245;22;75286;-78
2022/07/15 11:03:08;;;;;;;;;2.50;2.50;;;;;28.08;25.45;101905.28;6278544;22;45219;-79
2022/07/15 11:06:02;;;;;;;;;5.00;5.00;;;;;28.28;25.43;101903.19;6249427;22;45419;-81
2022/07/15 11:09:32;;;;;;;;;1.50;1.50;;;;;28.57;25.20;101907.78;6247239;22;45382;-80
2022/07/15 11:12:07;;;;;;;;;2.75;2.75;;;;;28.78;24.84;101899.28;6276418;22;45244;-81
2022/07/15 11:15:21;;;;;;;;;;;;;;;;;;;;;
2022/07/15 11:18:23;;;;;;;;;1.25;1.25;;;;;29.05;24.75;101903.97;6246022;22;67346;-82
2022/07/15 11:21:03;;;;;;;;;1.00;0.33;;;;;29.08;23.81;101901.06;6240488;22;45665;-82
2022/07/15 11:24:25;;;;;;;;;;;;;;;;;;;;;
2022/07/15 11:27:14;;;;;;;;;;;;;;;;;;;;;
2022/07/15 11:30:05;;;;;;;;;0.25;0.25;;;;;29.37;23.63;101878.38;6244644;22;70132;-81
2022/07/15 11:33:06;;;;;;;;;1.00;1.00;;;;;29.42;23.59;101872.66;6244840;22;45658;-82
2022/07/15 11:36:20;;;;;;;;;;;;;;;;;;;;;
2022/07/15 13:19:54;;;;;;;;;;;;;;;;;;;;;
2022/07/15 16:09:10;;;;;;;;;;;;;;;;;;;;;
2022/07/15 16:12:09;;;;;;;;;;;;;;;;;;;;;
2022/07/15 16:16:19;;;;;;;;;;;;;;;;;;;;;
2022/07/15 16:30:02;;;;;;;;;;;;;;;;;;;;;
2022/07/15 16:33:24;;;;;;;;;;;;;;;;;;;;;
2022/07/15 16:36:23;;;;;;;;;;;;;;;;;;;;;
2022/07/15 16:39:57;;;;;;;;;;;;;;;;;;;;;
2022/07/15 16:43:02;;;;;;;;;;;;;;;;;;;;;
2022/07/15 16:46:24;;;;;;;;;;;;;;;;;;;;;
2022/07/15 16:49:46;;;;;;;;;;;;;;;;;;;;;
2022/07/15 16:53:10;;;;;;;;;0.67;0.67;;;;;32.87;18.08;101718.53;6121850;22;67876;-81
2022/07/15 16:56:09;;;;;;;;;;;;;;;;;;;;;
2022/07/15 16:59:13;;;;;;;;;;;;;;;;;;;;;
2022/07/15 17:01:59;;;;;;;;;1.25;1.25;;;;;32.86;18.05;101741.38;6212151;22;73353;-80
2022/07/15 17:04:55;;;;;;;;;;;;;;;;;;;;;
2022/07/15 17:07:42;;;;;;;;;;;;;;;;;;;;;
2022/07/15 17:10:40;;;;;;;;;;;;;;;;;;;;;
2022/07/15 17:13:40;;;;;;;;;2.25;2.00;;;;;38.66;15.71;101724.81;6212623;22;73090;-81
2022/07/15 22:28:48;;;;;;;;;;;;;;;;;;;;;
2022/07/15 22:31:39;;;;;;;;;2.50;2.25;;;;;22.96;34.04;101846.19;6173209;23;74299;-82
2022/07/15 22:38:47;;;;;;;;;;;;;;;;;;;;;
2022/07/15 22:42:05;;;;;;;;;;;;;;;;;;;;;
2022/07/15 22:45:48;;;;;;;;;;;;;;;;;;;;;
2022/07/15 23:45:58;;;;;;;;;;;;;;;;;;;;;
2022/07/15 23:49:04;;;;;;;;;;;;;;;;;;;;;
